Time;durP1;ratioP1;P1;durP2;ratioP2;P2;SDS_P1;SDS_P2;PMS_P1;PMS_P2;Temp;Humidity;BMP_temperature;BMP_pressure;BME280_temperature;BME280_humidity;BME280_pressure;Samples;Min_cycle;Max_cycle;Signal;HPM_P1;HPM_P2
2022/05/20 05:48:51;;;;;;;4.55;4.15;;;16.50;99.90;;;;;;5070903;28;20544;-71
2022/05/20 05:51:17;;;;;;;5.07;4.45;;;16.30;99.90;;;;;;5073319;28;20166;-70
2022/05/20 05:53:43;;;;;;;6.32;5.82;;;16.40;99.90;;;;;;5073390;28;20197;-70
2022/05/20 05:56:09;;;;;;;5.60;5.10;;;16.40;99.90;;;;;;5071121;28;20188;-70
2022/05/20 05:58:36;;;;;;;5.07;4.68;;;16.40;99.90;;;;;;5072200;28;20185;-70
2022/05/20 06:01:02;;;;;;;5.20;4.80;;;16.40;99.90;;;;;;5073368;28;20184;-71
2022/05/20 06:03:28;;;;;;;4.70;4.30;;;16.50;99.90;;;;;;5072711;28;20292;-70
2022/05/20 06:05:53;;;;;;;5.82;5.25;;;16.60;99.90;;;;;;5074458;28;20216;-70
2022/05/20 06:08:19;;;;;;;5.07;4.70;;;16.80;99.90;;;;;;5069607;28;20248;-70
2022/05/20 06:10:46;;;;;;;5.60;5.20;;;16.80;99.90;;;;;;5069038;28;20182;-69
2022/05/20 06:13:12;;;;;;;4.93;4.50;;;16.90;99.90;;;;;;5068906;28;20206;-69
2022/05/20 06:15:40;;;;;;;6.20;5.60;;;16.90;99.90;;;;;;5069598;28;20185;-70
2022/05/20 06:18:05;;;;;;;6.65;6.07;;;16.90;99.90;;;;;;5071909;28;20672;-70
2022/05/20 06:20:32;;;;;;;8.55;7.72;;;16.70;99.90;;;;;;5069948;28;20185;-71
2022/05/20 06:23:01;;;;;;;8.50;7.80;;;16.60;99.90;;;;;;5069204;28;20197;-69
2022/05/20 06:25:27;;;;;;;7.90;7.22;;;16.50;99.90;;;;;;5068683;28;20663;-69
2022/05/20 06:27:52;;;;;;;9.20;7.30;;;16.60;99.90;;;;;;5069516;28;20653;-71
2022/05/20 06:30:20;;;;;;;9.70;7.57;;;16.70;99.90;;;;;;5070025;28;20209;-69
2022/05/20 06:32:45;;;;;;;7.70;7.10;;;16.70;99.90;;;;;;5068645;28;20664;-69
2022/05/20 06:40:47;;;;;;;9.10;7.50;;;16.50;99.90;;;;;;5059261;28;20177;-69
2022/05/20 06:43:15;;;;;;;13.35;8.60;;;16.50;99.90;;;;;;5059276;28;20204;-69
2022/05/20 06:45:41;;;;;;;8.98;7.60;;;16.60;99.90;;;;;;5048662;28;20178;-69
2022/05/20 06:48:07;;;;;;;16.75;8.90;;;16.50;99.90;;;;;;5048567;28;20194;-69
2022/05/20 06:50:36;;;;;;;11.70;7.95;;;16.60;99.90;;;;;;5049701;28;20202;-69
2022/05/20 06:53:02;;;;;;;12.13;10.80;;;16.50;99.90;;;;;;5048306;28;20281;-69
2022/05/20 06:55:27;;;;;;;10.35;9.30;;;16.50;99.90;;;;;;5048851;28;20210;-69
2022/05/20 06:57:53;;;;;;;10.38;9.43;;;16.50;99.90;;;;;;5045399;28;20199;-71
2022/05/20 07:00:18;;;;;;;10.02;9.02;;;16.40;99.90;;;;;;5035274;28;20179;-69
2022/05/20 07:02:44;;;;;;;9.27;8.07;;;16.40;99.90;;;;;;5034853;28;20199;-69
2022/05/20 07:05:10;;;;;;;9.27;8.23;;;16.40;99.90;;;;;;5036674;28;20170;-69
2022/05/20 07:07:37;;;;;;;8.27;7.47;;;16.40;99.90;;;;;;5035421;28;20182;-71
2022/05/20 07:10:03;;;;;;;8.68;7.82;;;16.30;99.90;;;;;;5048193;28;20179;-70
2022/05/20 07:12:29;;;;;;;8.55;7.75;;;16.30;99.90;;;;;;5051825;28;20198;-68
2022/05/20 07:14:54;;;;;;;8.68;7.93;;;16.10;99.90;;;;;;5055687;28;20200;-69
2022/05/20 07:17:20;;;;;;;9.05;7.95;;;15.80;99.90;;;;;;5057187;28;20551;-69
2022/05/20 07:19:46;;;;;;;9.30;7.40;;;15.80;99.90;;;;;;5054555;28;20233;-69
2022/05/20 07:22:12;;;;;;;7.35;6.50;;;15.70;99.90;;;;;;5054391;28;20221;-69
2022/05/20 07:24:38;;;;;;;7.50;6.50;;;15.80;99.90;;;;;;5054430;28;20175;-69
2022/05/20 07:27:04;;;;;;;7.00;6.35;;;16.00;99.90;;;;;;5055528;28;20539;-69
2022/05/20 07:29:30;;;;;;;6.63;5.90;;;16.10;99.90;;;;;;5054165;28;20185;-69
2022/05/20 07:31:56;;;;;;;6.85;6.15;;;16.20;99.90;;;;;;5055036;28;20205;-69
2022/05/20 07:34:22;;;;;;;8.30;5.90;;;16.20;99.90;;;;;;5055271;28;20209;-69
2022/05/20 07:36:47;;;;;;;7.00;6.43;;;16.30;99.90;;;;;;5054239;28;20303;-69
2022/05/20 07:39:13;;;;;;;7.38;6.78;;;16.30;99.90;;;;;;5054057;28;20174;-70
2022/05/20 07:41:38;;;;;;;9.05;8.00;;;16.30;99.90;;;;;;5055508;28;20308;-70
2022/05/20 07:44:04;;;;;;;8.88;8.13;;;16.40;99.90;;;;;;5054329;28;20245;-70
2022/05/20 07:46:30;;;;;;;7.38;6.88;;;16.40;99.90;;;;;;5053839;28;20574;-70
2022/05/20 07:48:55;;;;;;;8.05;7.45;;;16.30;99.90;;;;;;5054610;28;20170;-71
2022/05/20 07:51:23;;;;;;;8.02;7.43;;;16.30;99.90;;;;;;5053751;28;20645;-70
2022/05/20 07:54:15;;;;;;;7.60;6.90;;;16.20;99.90;;;;;;5055050;28;20219;-70
2022/05/20 07:56:49;;;;;;;7.18;6.47;;;16.20;99.90;;;;;;5053917;28;20205;-70
2022/05/20 07:59:46;;;;;;;6.80;6.00;;;16.30;99.90;;;;;;5053463;28;20166;-69
2022/05/20 08:02:15;;;;;;;9.68;6.25;;;16.30;99.90;;;;;;5044982;28;20205;-70
2022/05/20 08:04:56;;;;;;;6.57;5.97;;;16.30;99.90;;;;;;5053850;28;20514;-70
2022/05/20 08:07:35;;;;;;;6.85;6.35;;;16.40;99.90;;;;;;5054900;28;20162;-70
2022/05/20 08:10:04;;;;;;;6.70;6.20;;;16.40;99.90;;;;;;5052938;28;20220;-70
2022/05/20 08:12:30;;;;;;;6.82;6.22;;;16.50;99.90;;;;;;5054353;28;20311;-70
2022/05/20 08:14:55;;;;;;;6.60;6.00;;;16.50;99.90;;;;;;5054857;28;20216;-70
2022/05/20 08:17:26;;;;;;;6.63;6.13;;;16.60;99.90;;;;;;5053819;28;20202;-70
2022/05/20 08:19:55;;;;;;;6.90;6.10;;;16.60;99.90;;;;;;5053752;28;20163;-70
2022/05/20 08:22:22;;;;;;;9.45;8.65;;;16.70;99.90;;;;;;5054505;28;20216;-70
2022/05/20 08:24:52;;;;;;;10.55;9.75;;;16.70;99.90;;;;;;5054143;28;20182;-70
2022/05/20 08:27:22;;;;;;;12.10;11.15;;;16.80;99.90;;;;;;5053894;28;20174;-70
2022/05/20 08:29:49;;;;;;;9.88;8.85;;;16.70;99.90;;;;;;5053502;28;20264;-71
2022/05/20 08:32:15;;;;;;;5.82;5.28;;;16.70;99.90;;;;;;5054666;28;20412;-70
2022/05/20 08:34:44;;;;;;;7.13;5.63;;;16.80;99.90;;;;;;5053191;28;20190;-71
2022/05/20 08:37:12;;;;;;;6.30;5.75;;;17.00;99.90;;;;;;5053026;28;20206;-71
2022/05/20 08:39:38;;;;;;;6.63;6.13;;;17.00;99.90;;;;;;5053005;28;20178;-71
2022/05/20 08:42:11;;;;;;;6.15;5.55;;;17.00;99.90;;;;;;5053076;28;20197;-69
2022/05/20 08:44:37;;;;;;;5.88;5.32;;;17.20;99.90;;;;;;5053011;28;20257;-69
2022/05/20 08:47:27;;;;;;;6.55;5.47;;;17.50;99.90;;;;;;5053042;28;20305;-70
2022/05/20 08:49:57;;;;;;;7.10;5.63;;;17.90;99.90;;;;;;5054204;28;20174;-70
2022/05/20 08:52:23;;;;;;;6.82;5.95;;;18.50;99.90;;;;;;5054315;28;20194;-70
2022/05/20 08:54:49;;;;;;;5.85;5.38;;;18.80;99.90;;;;;;5054356;28;20624;-71
2022/05/20 08:57:28;;;;;;;5.28;4.85;;;18.70;99.90;;;;;;5053533;28;20212;-76
2022/05/20 08:59:54;;;;;;;5.88;5.38;;;19.00;99.90;;;;;;5052648;28;20732;-71
2022/05/20 09:02:21;;;;;;;6.80;6.10;;;19.20;99.90;;;;;;5052971;28;20202;-70
2022/05/20 09:04:47;;;;;;;5.68;5.25;;;19.10;99.90;;;;;;5052610;28;20201;-71
2022/05/20 09:07:16;;;;;;;7.43;5.47;;;19.10;99.90;;;;;;5052524;28;20185;-71
2022/05/20 09:09:52;;;;;;;6.45;5.85;;;19.10;99.90;;;;;;5053739;28;20189;-71
2022/05/20 09:12:39;;;;;;;5.72;5.22;;;19.10;99.90;;;;;;5054207;28;20213;-70
2022/05/20 09:18:07;;;;;;;5.18;4.78;;;19.50;99.90;;;;;;5053687;28;20212;-71
2022/05/20 09:20:32;;;;;;;4.93;4.63;;;20.00;99.90;;;;;;5053288;28;20171;-71
2022/05/20 09:23:04;;;;;;;5.85;5.35;;;20.40;99.90;;;;;;5053534;28;20285;-70
2022/05/20 09:25:33;;;;;;;7.20;6.63;;;20.90;99.90;;;;;;5053453;28;20166;-70
2022/05/20 09:28:29;;;;;;;5.63;5.13;;;21.30;99.90;;;;;;5053154;28;20182;-71
2022/05/20 09:31:12;;;;;;;7.30;5.35;;;21.20;99.90;;;;;;5053385;28;20205;-71
2022/05/20 09:33:38;;;;;;;5.53;4.95;;;21.40;99.90;;;;;;5052238;28;20202;-70
2022/05/20 09:36:04;;;;;;;5.20;4.70;;;21.40;99.90;;;;;;5052461;28;20182;-70
2022/05/20 09:38:42;;;;;;;5.45;5.05;;;21.30;99.90;;;;;;5052096;28;20189;-70
2022/05/20 09:41:20;;;;;;;5.53;5.10;;;21.00;99.90;;;;;;5052154;28;20167;-70
2022/05/20 09:43:58;;;;;;;5.68;5.07;;;21.10;99.90;;;;;;5051529;28;20201;-69
2022/05/20 09:46:45;;;;;;;5.60;4.82;;;21.50;99.90;;;;;;5051337;28;20198;-70
2022/05/20 09:49:25;;;;;;;9.73;4.65;;;21.90;99.90;;;;;;5051945;28;20281;-69
2022/05/20 09:51:54;;;;;;;5.60;5.20;;;22.40;99.90;;;;;;5051414;28;20202;-70
2022/05/20 09:54:40;;;;;;;5.82;5.32;;;22.40;99.90;;;;;;5051700;28;20188;-70
2022/05/20 09:57:12;;;;;;;6.10;5.60;;;22.50;99.90;;;;;;5052067;28;20198;-70
2022/05/20 09:59:46;;;;;;;5.93;5.28;;;22.10;99.90;;;;;;5052026;28;20269;-70
2022/05/20 10:02:24;;;;;;;5.95;5.45;;;21.80;99.90;;;;;;5052402;28;20202;-70
2022/05/20 10:05:01;;;;;;;7.00;6.28;;;21.80;99.90;;;;;;5032280;28;20633;-70
2022/05/20 10:07:52;;;;;;;5.72;5.32;;;21.80;99.90;;;;;;5032078;28;20702;-70
2022/05/20 10:10:29;;;;;;;5.80;5.30;;;22.10;99.90;;;;;;5031681;28;20186;-70
2022/05/20 10:12:57;;;;;;;6.57;5.47;;;22.40;99.90;;;;;;5035360;28;20676;-70
2022/05/20 10:15:32;;;;;;;6.13;5.63;;;22.40;99.90;;;;;;5051661;28;20178;-70
2022/05/20 10:18:37;;;;;;;5.72;5.05;;;22.60;99.90;;;;;;5051923;28;20197;-70
2022/05/20 10:21:08;;;;;;;8.63;5.90;;;22.70;99.90;;;;;;5050151;28;20217;-70
2022/05/20 10:23:54;;;;;;;7.57;5.32;;;23.20;99.90;;;;;;5051482;28;20202;-70
2022/05/20 10:26:39;;;;;;;6.22;5.07;;;23.30;99.90;;;;;;5051131;28;20236;-70
2022/05/20 10:32:36;;;;;;;6.18;5.65;;;23.80;99.90;;;;;;5052429;28;20198;-70
2022/05/20 10:35:19;;;;;;;6.15;5.53;;;23.70;99.90;;;;;;5055131;28;20174;-69
2022/05/20 10:38:09;;;;;;;8.80;6.05;;;23.40;99.90;;;;;;5055337;28;20226;-69
2022/05/20 10:40:38;;;;;;;6.70;6.00;;;23.40;99.90;;;;;;5056907;28;20587;-70
2022/05/20 10:48:34;;;;;;;7.35;6.00;;;23.40;99.90;;;;;;5055659;28;20205;-70
2022/05/20 10:49:17;;;;;;;10.68;5.88;;;23.70;99.90;;;;;;5056077;28;20231;-70
2022/05/20 10:52:03;;;;;;;6.03;5.32;;;23.80;99.90;;;;;;5054963;28;20170;-70
2022/05/20 10:54:36;;;;;;;7.45;6.00;;;24.00;99.90;;;;;;5054874;28;20657;-70
2022/05/20 10:57:23;;;;;;;9.65;6.97;;;24.00;99.90;;;;;;5056060;28;20195;-70
2022/05/20 11:00:03;;;;;;;8.82;6.35;;;23.90;99.90;;;;;;5055966;28;20171;-70
2022/05/20 11:02:55;;;;;;;8.98;6.20;;;23.90;99.90;;;;;;5054655;28;20197;-70
2022/05/20 11:05:39;;;;;;;8.75;6.07;;;23.90;99.90;;;;;;5054192;28;20174;-70
2022/05/20 11:08:31;;;;;;;13.25;6.50;;;24.20;99.90;;;;;;5056003;28;20174;-70
2022/05/20 11:11:21;;;;;;;9.05;4.97;;;24.80;99.90;;;;;;5052697;28;20186;-70
2022/05/20 11:13:57;;;;;;;8.32;5.40;;;25.10;99.90;;;;;;5054863;28;20206;-70
2022/05/20 11:16:26;;;;;;;11.27;5.35;;;25.50;99.90;;;;;;5055450;28;20182;-70
2022/05/20 11:19:18;;;;;;;14.68;5.97;;;25.40;99.90;;;;;;5054482;28;20185;-70
2022/05/20 11:21:51;;;;;;;8.43;5.80;;;25.30;99.90;;;;;;5034149;28;20225;-70
2022/05/20 11:24:17;;;;;;;11.52;6.68;;;25.40;99.90;;;;;;5055836;28;20206;-70
2022/05/20 11:27:01;;;;;;;8.02;6.88;;;24.80;99.90;;;;;;5054313;28;20209;-70
2022/05/20 11:30:00;;;;;;;6.85;6.25;;;24.40;99.90;;;;;;5055082;28;20178;-69
2022/05/20 11:32:58;;;;;;;8.23;6.70;;;24.20;99.90;;;;;;5054374;28;20582;-70
2022/05/20 11:36:01;;;;;;;11.73;6.40;;;24.30;99.90;;;;;;5037734;28;20205;-70
2022/05/20 11:38:46;;;;;;;18.75;6.15;;;24.40;99.90;;;;;;5053938;28;20208;-70
2022/05/20 11:41:39;;;;;;;21.10;6.40;;;24.50;99.90;;;;;;5054788;28;20174;-70
2022/05/20 11:44:29;;;;;;;6.88;6.15;;;24.60;99.90;;;;;;5054371;28;20174;-70
2022/05/20 11:47:21;;;;;;;12.77;6.35;;;24.50;99.90;;;;;;5053843;28;20270;-70
2022/05/20 11:50:08;;;;;;;10.73;6.65;;;24.40;99.90;;;;;;5053912;28;20174;-70
2022/05/20 11:53:01;;;;;;;12.48;6.90;;;24.50;99.90;;;;;;5053811;28;20753;-70
2022/05/20 11:55:36;;;;;;;6.72;5.90;;;24.50;99.90;;;;;;5053969;28;20178;-70
2022/05/20 11:58:20;;;;;;;31.38;7.28;;;24.70;99.90;;;;;;5054173;28;20204;-70
2022/05/20 12:00:47;;;;;;;9.27;6.63;;;24.80;99.90;;;;;;5053766;28;20182;-70
2022/05/20 12:03:16;;;;;;;13.48;6.63;;;24.90;99.90;;;;;;5054963;28;20236;-71
2022/05/20 12:05:47;;;;;;;15.77;6.45;;;25.00;99.90;;;;;;5053793;28;20174;-70
2022/05/20 12:08:44;;;;;;;11.68;5.95;;;25.00;99.90;;;;;;5054081;28;20174;-69
2022/05/20 12:11:29;;;;;;;10.88;5.72;;;25.10;99.90;;;;;;5049578;28;20182;-69
2022/05/20 12:14:13;;;;;;;10.15;6.50;;;25.20;99.90;;;;;;5053704;28;20185;-69
2022/05/20 12:17:03;;;;;;;9.48;6.60;;;25.30;99.90;;;;;;5053302;28;20206;-70
2022/05/20 12:25:41;;;;;;;9.48;6.30;;;25.30;99.90;;;;;;5052188;28;20209;-71
2022/05/20 12:28:31;;;;;;;6.57;5.32;;;25.40;99.90;;;;;;5053408;28;20209;-70
2022/05/20 12:31:17;;;;;;;7.18;5.60;;;25.50;99.90;;;;;;5055745;28;20178;-71
2022/05/20 12:34:05;;;;;;;8.73;5.53;;;25.50;99.90;;;;;;5057398;28;20202;-71
2022/05/20 12:36:42;;;;;;;12.00;5.20;;;25.40;99.90;;;;;;5057266;28;20228;-72
2022/05/20 12:42:26;;;;;;;10.07;5.38;;;25.60;99.90;;;;;;5057971;28;20240;-72
2022/05/20 12:44:52;;;;;;;7.57;4.95;;;25.70;99.90;;;;;;5056564;28;20596;-71
2022/05/20 12:47:28;;;;;;;6.40;4.50;;;25.80;99.90;;;;;;5056447;28;20193;-71
2022/05/20 12:50:31;;;;;;;14.25;5.38;;;25.90;99.90;;;;;;5056702;28;20186;-71
2022/05/20 12:53:05;;;;;;;13.95;4.90;;;26.10;99.90;;;;;;5046771;28;20234;-70
2022/05/20 12:58:48;;;;;;;10.43;4.78;;;26.30;98.40;;;;;;5054169;28;20257;-70
2022/05/20 13:01:14;;;;;;;7.30;4.90;;;26.30;97.10;;;;;;5055890;28;20251;-71
2022/05/20 13:03:46;;;;;;;7.70;5.03;;;26.30;96.10;;;;;;5052956;28;20194;-70
2022/05/20 13:06:20;;;;;;;9.93;5.07;;;26.40;94.50;;;;;;5046427;28;20630;-70
2022/05/20 13:09:11;;;;;;;9.85;5.10;;;26.40;95.80;;;;;;5052563;28;20224;-70
2022/05/20 13:35:53;;;;;;;8.23;5.00;;;27.00;94.20;;;;;;5638249;23;20244;-71
2022/05/20 13:38:26;;;;;;;12.82;5.72;;;27.20;91.60;;;;;;4918939;29;20224;-71
2022/05/20 13:40:53;;;;;;;7.88;4.93;;;27.30;91.80;;;;;;4937247;29;20170;-70
2022/05/20 13:43:25;;;;;;;12.60;5.53;;;27.30;91.20;;;;;;4919294;29;20293;-70
2022/05/20 13:52:03;;;;;;;13.80;4.97;;;28.00;90.00;;;;;;4936326;29;20296;-70
2022/05/20 13:54:33;;;;;;;6.25;4.65;;;28.40;85.50;;;;;;4918588;29;20166;-70
2022/05/20 13:57:01;;;;;;;9.35;4.50;;;28.60;82.90;;;;;;4917579;29;20232;-70
2022/05/20 13:59:32;;;;;;;9.85;4.82;;;28.50;81.00;;;;;;4917952;29;20618;-70
2022/05/20 14:02:10;;;;;;;6.80;4.70;;;28.40;82.00;;;;;;4918548;29;20208;-70
2022/05/20 14:04:48;;;;;;;15.55;5.32;;;28.30;82.70;;;;;;4918334;29;20669;-70
2022/05/20 14:07:42;;;;;;;14.50;5.00;;;28.10;83.50;;;;;;4932233;29;20208;-70
2022/05/20 14:10:23;;;;;;;8.52;4.55;;;28.00;85.20;;;;;;4922031;29;20174;-71
2022/05/20 14:13:18;;;;;;;8.20;4.50;;;27.80;87.40;;;;;;4922102;29;20197;-70
2022/05/20 14:15:56;;;;;;;9.00;4.50;;;27.80;86.90;;;;;;4909025;29;20225;-70
2022/05/20 14:18:35;;;;;;;8.27;4.85;;;27.70;86.50;;;;;;4921926;29;20202;-70
2022/05/20 14:21:11;;;;;;;7.97;4.55;;;27.70;83.90;;;;;;4939285;29;20217;-70
2022/05/20 14:23:46;;;;;;;15.20;5.25;;;27.60;82.80;;;;;;4922445;29;20684;-70
2022/05/20 14:26:21;;;;;;;9.48;4.53;;;27.60;85.40;;;;;;4922863;29;20217;-70
2022/05/20 14:28:52;;;;;;;16.45;5.18;;;27.70;84.60;;;;;;4939842;29;20177;-69
2022/05/20 14:31:23;;;;;;;8.40;4.60;;;27.80;83.60;;;;;;4939634;29;20162;-76
2022/05/20 14:33:52;;;;;;;6.35;4.80;;;27.60;82.80;;;;;;4922761;29;20209;-70
2022/05/20 14:36:18;;;;;;;7.03;4.72;;;27.30;85.20;;;;;;4922342;29;20233;-70
2022/05/20 14:38:47;;;;;;;14.13;5.05;;;27.00;87.80;;;;;;4939576;29;20206;-70
2022/05/20 14:41:25;;;;;;;8.35;5.13;;;26.70;90.50;;;;;;4922289;29;20170;-70
2022/05/20 14:43:55;;;;;;;8.52;5.10;;;26.60;91.90;;;;;;4939559;29;20209;-70
2022/05/20 14:49:29;;;;;;;12.25;5.00;;;26.30;92.70;;;;;;4939717;29;20218;-70
2022/05/20 14:51:56;;;;;;;18.20;5.55;;;26.30;93.40;;;;;;4922831;29;20613;-70
2022/05/20 14:54:28;;;;;;;10.90;5.30;;;26.30;94.00;;;;;;4939385;29;20167;-70
2022/05/20 14:56:53;;;;;;;21.45;5.78;;;26.40;94.70;;;;;;4922234;29;20281;-70
2022/05/20 14:59:37;;;;;;;8.80;5.05;;;26.40;94.30;;;;;;4939346;29;20214;-70
2022/05/20 15:02:03;;;;;;;15.70;5.40;;;26.30;94.90;;;;;;4922183;29;20743;-70
2022/05/20 15:04:28;;;;;;;9.23;4.88;;;26.30;94.80;;;;;;4922518;29;20213;-69
2022/05/20 15:07:00;;;;;;;13.05;5.13;;;26.10;94.50;;;;;;4921843;29;20209;-69
2022/05/20 15:09:32;;;;;;;12.30;4.78;;;26.00;94.50;;;;;;4923849;29;20628;-69
2022/05/20 15:11:58;;;;;;;14.10;5.00;;;25.90;93.40;;;;;;4924874;29;20229;-70
2022/05/20 15:14:24;;;;;;;14.80;4.70;;;25.90;92.50;;;;;;4927284;29;20175;-69
2022/05/20 15:16:49;;;;;;;9.75;4.55;;;25.80;92.30;;;;;;4942658;29;20206;-70
2022/05/20 15:19:15;;;;;;;7.53;4.30;;;25.80;91.60;;;;;;4943673;29;20174;-70
2022/05/20 15:21:42;;;;;;;9.63;4.50;;;25.80;91.00;;;;;;4926401;29;20293;-70
2022/05/20 15:24:12;;;;;;;16.33;5.03;;;25.90;91.60;;;;;;4924865;29;20178;-71
2022/05/20 15:26:39;;;;;;;16.02;5.00;;;26.10;91.20;;;;;;4943179;29;20183;-71
2022/05/20 15:29:07;;;;;;;12.25;4.50;;;26.30;91.50;;;;;;4926628;29;20190;-71
2022/05/20 15:37:21;;;;;;;26.02;5.70;;;26.80;90.40;;;;;;4938528;29;20213;-70
2022/05/20 15:39:53;;;;;;;13.00;4.70;;;26.80;90.10;;;;;;4921868;29;20190;-71
2022/05/20 15:42:22;;;;;;;7.57;4.60;;;26.60;90.00;;;;;;4938921;29;20194;-70
2022/05/20 15:44:48;;;;;;;13.98;5.05;;;26.30;90.60;;;;;;4926696;29;20186;-71
2022/05/20 15:47:15;;;;;;;11.95;4.93;;;26.20;91.80;;;;;;4925652;29;20202;-70
2022/05/20 15:49:42;;;;;;;10.15;4.30;;;26.00;91.30;;;;;;4925010;29;20194;-70
2022/05/20 15:52:09;;;;;;;8.35;5.10;;;25.90;91.80;;;;;;4926244;29;20205;-70
2022/05/20 15:54:40;;;;;;;11.30;4.55;;;26.00;92.70;;;;;;4926698;29;20183;-70
2022/05/20 15:57:09;;;;;;;8.60;4.28;;;26.00;90.00;;;;;;4926935;29;20296;-70
2022/05/20 15:59:35;;;;;;;10.25;4.88;;;26.00;90.00;;;;;;4921692;29;20178;-70
2022/05/20 16:02:03;;;;;;;6.78;4.78;;;26.10;90.10;;;;;;4921301;29;20218;-70
2022/05/20 16:04:29;;;;;;;7.45;3.92;;;26.10;90.00;;;;;;4920862;29;20225;-70
2022/05/20 16:06:55;;;;;;;9.48;4.10;;;26.20;90.00;;;;;;4920757;29;20175;-70
2022/05/20 16:09:20;;;;;;;8.23;4.25;;;26.40;89.60;;;;;;4937768;29;20178;-69
2022/05/20 16:11:48;;;;;;;11.40;4.78;;;26.40;88.30;;;;;;4920676;29;20186;-69
2022/05/20 16:14:14;;;;;;;10.68;4.43;;;26.30;89.20;;;;;;4921534;29;20177;-70
2022/05/20 16:16:40;;;;;;;11.02;4.43;;;26.10;90.40;;;;;;4920794;29;20210;-70
2022/05/20 16:19:05;;;;;;;9.02;4.22;;;25.80;90.90;;;;;;4920666;29;20185;-70
2022/05/20 16:21:31;;;;;;;7.82;5.05;;;25.60;91.20;;;;;;4921362;29;20178;-69
2022/05/20 16:24:04;;;;;;;12.35;4.80;;;25.50;92.40;;;;;;4920506;29;20206;-68
2022/05/20 16:26:34;;;;;;;10.35;5.05;;;25.20;93.20;;;;;;4937682;29;20673;-71
2022/05/20 16:29:00;;;;;;;8.88;5.15;;;25.10;95.30;;;;;;4921154;29;20186;-70
2022/05/20 16:31:26;;;;;;;11.82;5.20;;;24.90;97.50;;;;;;4936862;29;20293;-71
2022/05/20 16:33:52;;;;;;;10.10;4.97;;;24.60;99.90;;;;;;4921071;29;20201;-71
2022/05/20 16:36:18;;;;;;;14.38;5.10;;;24.50;99.90;;;;;;4920319;29;20226;-70
2022/05/20 16:38:44;;;;;;;8.85;5.22;;;24.40;99.90;;;;;;4920242;29;20194;-71
2022/05/20 16:41:45;;;;;;;19.92;4.90;;;24.20;99.90;;;;;;4922456;29;20222;-71
2022/05/20 16:44:10;;;;;;;8.27;4.93;;;24.10;99.90;;;;;;4921238;29;20192;-71
2022/05/20 16:46:37;;;;;;;8.23;4.82;;;24.00;99.90;;;;;;4920166;29;20547;-71
2022/05/20 16:49:12;;;;;;;11.25;5.13;;;23.80;99.90;;;;;;4937059;29;20669;-71
2022/05/20 16:51:42;;;;;;;6.53;5.00;;;23.70;99.90;;;;;;4920000;29;20193;-71
2022/05/20 16:54:10;;;;;;;8.95;5.03;;;23.70;99.90;;;;;;4919869;29;20704;-71
2022/05/20 17:02:52;;;;;;;7.20;5.20;;;23.90;99.90;;;;;;4936782;29;20695;-70
2022/05/20 17:05:17;;;;;;;9.45;5.78;;;23.90;99.90;;;;;;4919760;29;20274;-70
2022/05/20 17:07:43;;;;;;;9.30;5.03;;;24.00;99.90;;;;;;4919730;29;20671;-70
2022/05/20 17:10:09;;;;;;;9.63;5.78;;;24.10;99.90;;;;;;4919972;29;20207;-70
2022/05/20 17:12:36;;;;;;;8.38;5.28;;;24.10;99.90;;;;;;4920488;29;20197;-70
2022/05/20 17:15:02;;;;;;;7.72;5.30;;;23.90;99.90;;;;;;4936626;29;20186;-70
2022/05/20 17:17:28;;;;;;;8.07;5.20;;;23.80;99.90;;;;;;4920322;29;20216;-71
2022/05/20 17:19:53;;;;;;;13.00;5.88;;;23.70;99.90;;;;;;4919931;29;20182;-71
2022/05/20 17:25:05;;;;;;;13.82;5.82;;;23.70;99.90;;;;;;4937268;29;20239;-72
2022/05/20 17:27:31;;;;;;;11.40;5.82;;;23.70;99.90;;;;;;4936536;29;20214;-72
2022/05/20 17:30:01;;;;;;;11.45;6.35;;;23.80;99.90;;;;;;4920254;29;20277;-72
2022/05/20 17:32:27;;;;;;;8.65;6.40;;;23.80;99.90;;;;;;4920177;29;20202;-72
2022/05/20 17:34:52;;;;;;;12.98;6.32;;;23.70;99.90;;;;;;4936623;29;20305;-72
2022/05/20 17:37:21;;;;;;;11.68;6.05;;;23.70;99.90;;;;;;4920094;29;20637;-72
2022/05/20 17:39:46;;;;;;;12.65;6.70;;;23.60;99.90;;;;;;4936585;29;20182;-72
2022/05/20 17:42:12;;;;;;;10.05;5.80;;;23.60;99.90;;;;;;4919456;29;20572;-72
2022/05/20 17:44:39;;;;;;;8.18;5.60;;;23.60;99.90;;;;;;4919714;29;20633;-72
2022/05/20 17:47:06;;;;;;;12.23;5.43;;;23.60;99.90;;;;;;4936505;29;20645;-72
2022/05/20 17:49:34;;;;;;;13.77;5.82;;;23.60;99.90;;;;;;4919610;29;20237;-71
2022/05/20 17:52:00;;;;;;;11.25;5.63;;;23.60;99.90;;;;;;4936351;29;20694;-71
2022/05/20 17:54:26;;;;;;;20.40;6.57;;;23.60;99.90;;;;;;4919128;29;20696;-72
2022/05/20 17:56:51;;;;;;;15.57;6.70;;;23.50;99.90;;;;;;4936879;29;20201;-72
2022/05/20 17:59:17;;;;;;;8.85;6.03;;;23.50;99.90;;;;;;4919362;29;20212;-71
2022/05/20 18:01:43;;;;;;;13.85;5.95;;;23.30;99.90;;;;;;4919037;29;20668;-71
2022/05/20 18:04:11;;;;;;;14.43;6.85;;;23.20;99.90;;;;;;4936398;29;20182;-70
2022/05/20 18:06:37;;;;;;;13.75;6.85;;;23.10;99.90;;;;;;4919028;29;20649;-70
2022/05/20 18:09:03;;;;;;;13.00;6.55;;;23.00;99.90;;;;;;4919303;29;20183;-70
2022/05/20 18:11:29;;;;;;;10.85;6.18;;;23.00;99.90;;;;;;4919459;29;20186;-71
2022/05/20 18:13:54;;;;;;;9.77;6.60;;;22.80;99.90;;;;;;4919573;29;20202;-70
2022/05/20 18:16:20;;;;;;;12.18;7.05;;;22.70;99.90;;;;;;4919112;29;20774;-70
2022/05/20 18:18:46;;;;;;;12.93;6.80;;;22.60;99.90;;;;;;4919021;29;20218;-70
2022/05/20 18:21:13;;;;;;;14.57;6.53;;;22.60;99.90;;;;;;4919040;29;20183;-70
2022/05/20 18:23:38;;;;;;;10.70;6.40;;;22.40;99.90;;;;;;4935934;29;20265;-70
2022/05/20 18:26:04;;;;;;;9.90;5.65;;;22.30;99.90;;;;;;4918860;29;20174;-70
2022/05/20 18:28:32;;;;;;;10.88;6.40;;;22.20;99.90;;;;;;4919590;29;20190;-70
2022/05/20 18:31:00;;;;;;;17.83;6.43;;;22.20;99.90;;;;;;4919020;29;20182;-70
2022/05/20 18:33:27;;;;;;;12.98;6.47;;;22.10;99.90;;;;;;4919066;29;20210;-70
2022/05/20 18:41:21;;;;;;;10.45;6.07;;;21.70;99.90;;;;;;4936046;29;20181;-70
2022/05/20 18:43:46;;;;;;;11.00;5.80;;;21.60;99.90;;;;;;4936132;29;20194;-70
2022/05/20 18:46:13;;;;;;;9.77;6.40;;;21.50;99.90;;;;;;4919680;29;20514;-70
2022/05/20 18:48:40;;;;;;;13.20;6.38;;;21.50;99.90;;;;;;4936093;29;20669;-70
2022/05/20 18:51:07;;;;;;;15.50;6.80;;;21.50;99.90;;;;;;4918678;29;20206;-71
2022/05/20 18:53:33;;;;;;;8.70;6.15;;;21.40;99.90;;;;;;4918824;29;20332;-70
2022/05/20 18:56:38;;;;;;;7.78;6.15;;;21.30;99.90;;;;;;4921643;29;20671;-70
2022/05/20 18:59:03;;;;;;;11.30;6.85;;;21.20;99.90;;;;;;4922134;29;20182;-71
2022/05/20 19:01:29;;;;;;;9.73;6.40;;;21.10;99.90;;;;;;4922274;29;20178;-70
2022/05/20 19:03:54;;;;;;;9.10;6.25;;;21.00;99.90;;;;;;4938982;29;20225;-70
2022/05/20 19:06:22;;;;;;;8.30;5.85;;;21.00;99.90;;;;;;4921866;29;20233;-70
2022/05/20 19:08:49;;;;;;;11.70;6.05;;;21.00;99.90;;;;;;4921894;29;20185;-70
2022/05/20 19:11:23;;;;;;;8.75;6.15;;;21.00;99.90;;;;;;4921939;29;20186;-71
2022/05/20 19:13:49;;;;;;;12.07;5.97;;;20.90;99.90;;;;;;4922047;29;20707;-71
2022/05/20 19:16:16;;;;;;;15.43;6.03;;;20.90;99.90;;;;;;4921852;29;20209;-70
2022/05/20 19:18:56;;;;;;;11.52;5.47;;;20.90;99.90;;;;;;4938738;29;20198;-71
2022/05/20 19:21:22;;;;;;;7.25;5.03;;;21.00;99.90;;;;;;4921982;29;20243;-70
2022/05/20 19:23:48;;;;;;;8.95;5.40;;;21.00;99.90;;;;;;4938519;29;20194;-70
2022/05/20 19:26:15;;;;;;;13.15;5.43;;;21.10;99.90;;;;;;4921559;29;20225;-70
2022/05/20 19:28:41;;;;;;;8.30;5.13;;;21.10;99.90;;;;;;4921466;29;20190;-70
2022/05/20 19:31:15;;;;;;;11.25;5.30;;;21.20;99.90;;;;;;4938833;29;20315;-70
2022/05/20 19:33:41;;;;;;;10.85;5.50;;;21.30;99.90;;;;;;4922081;29;20297;-70
2022/05/20 19:36:10;;;;;;;11.10;5.10;;;21.40;99.90;;;;;;4921465;29;20242;-70
2022/05/20 19:38:37;;;;;;;11.40;4.60;;;21.40;99.90;;;;;;4921214;29;20293;-70
2022/05/20 19:41:57;;;;;;;11.30;5.13;;;21.50;99.90;;;;;;4921538;29;20216;-71
2022/05/20 19:44:23;;;;;;;8.60;4.70;;;21.50;99.90;;;;;;4921943;29;20163;-72
2022/05/20 19:46:48;;;;;;;11.07;4.50;;;21.50;99.90;;;;;;4921407;29;20190;-71
2022/05/20 19:49:14;;;;;;;11.60;4.68;;;21.50;99.90;;;;;;4920274;29;20186;-71
2022/05/20 19:51:39;;;;;;;13.50;4.60;;;21.40;99.90;;;;;;4921034;29;20273;-70
2022/05/20 19:54:06;;;;;;;8.85;4.20;;;21.50;99.90;;;;;;4921013;29;20186;-70
2022/05/20 19:56:31;;;;;;;9.77;4.15;;;21.40;99.90;;;;;;4920931;29;20348;-70
2022/05/20 20:01:41;;;;;;;13.57;4.35;;;21.40;99.90;;;;;;4938789;29;20169;-70
2022/05/20 20:04:07;;;;;;;12.10;4.47;;;21.40;99.90;;;;;;4921151;29;20178;-71
2022/05/20 20:06:42;;;;;;;8.65;4.47;;;21.30;99.90;;;;;;4921086;29;20200;-70
2022/05/20 20:09:08;;;;;;;12.32;4.68;;;21.30;99.90;;;;;;4920824;29;20169;-70
2022/05/20 20:11:34;;;;;;;9.00;4.30;;;21.30;99.90;;;;;;4937738;29;20238;-70
2022/05/20 20:14:00;;;;;;;9.18;4.18;;;21.30;99.90;;;;;;4937627;29;20202;-70
2022/05/20 20:16:26;;;;;;;9.77;4.28;;;21.30;99.90;;;;;;4920978;29;20181;-70
2022/05/20 20:18:52;;;;;;;7.75;4.53;;;21.20;99.90;;;;;;4920453;29;20253;-70